Time;durP1;ratioP1;P1;durP2;ratioP2;P2;SDS_P1;SDS_P2;PMS_P1;PMS_P2;Temp;Humidity;BMP_temperature;BMP_pressure;BME280_temperature;BME280_humidity;BME280_pressure;Samples;Min_cycle;Max_cycle;Signal;HPM_P1;HPM_P2
2023/01/29 00:01:56;;;;;;;;;;;17.30;62.80;;;;;;5014835;28;1898;-72
2023/01/29 00:04:21;;;;;;;;;;;17.30;62.80;;;;;;5019876;28;874;-70
2023/01/29 00:06:47;;;;;;;;;;;17.30;62.80;;;;;;5022419;28;883;-71
2023/01/29 00:09:13;;;;;;;;;;;17.30;62.80;;;;;;5019656;28;1453;-70
2023/01/29 00:11:38;;;;;;;;;;;17.30;62.80;;;;;;5048292;28;830;-70
2023/01/29 00:14:04;;;;;;;;;;;17.30;62.90;;;;;;5049245;28;1022;-71
2023/01/29 00:16:29;;;;;;;;;;;17.30;62.90;;;;;;5019946;28;811;-71
2023/01/29 00:18:55;;;;;;;;;;;17.30;62.90;;;;;;5016775;28;1272;-70
2023/01/29 00:21:23;;;;;;;;;;;17.30;62.80;;;;;;5027153;28;924;-69
2023/01/29 00:23:49;;;;;;;;;;;17.30;63.60;;;;;;5019452;28;1919;-69
2023/01/29 00:26:14;;;;;;;;;;;17.30;62.90;;;;;;5018909;28;865;-70
2023/01/29 00:28:40;;;;;;;;;;;17.30;62.90;;;;;;5022608;28;1248;-70
2023/01/29 00:31:06;;;;;;;;;;;17.30;62.90;;;;;;5022840;28;1316;-70
2023/01/29 00:33:31;;;;;;;;;;;17.30;62.90;;;;;;5017181;28;907;-71
2023/01/29 00:35:57;;;;;;;;;;;17.30;62.90;;;;;;5016838;28;1057;-70
2023/01/29 00:38:22;;;;;;;;;;;17.30;62.90;;;;;;5049158;28;1256;-71
2023/01/29 00:46:16;;;;;;;;;;;17.30;62.90;;;;;;5017499;28;839;-71
2023/01/29 00:48:41;;;;;;;;;;;17.30;62.90;;;;;;5018287;28;1276;-69
2023/01/29 00:51:07;;;;;;;;;;;17.30;62.90;;;;;;5022752;28;875;-69
2023/01/29 00:53:32;;;;;;;;;;;17.30;63.00;;;;;;5020031;28;915;-71
2023/01/29 00:55:57;;;;;;;;;;;17.30;62.90;;;;;;5023288;28;825;-70
2023/01/29 00:58:27;;;;;;;;;;;17.20;62.90;;;;;;5020877;28;1251;-70
2023/01/29 01:00:53;;;;;;;;;;;17.30;62.90;;;;;;5021263;28;903;-70
2023/01/29 01:03:18;;;;;;;;;;;17.30;62.90;;;;;;5052936;28;1969;-70
2023/01/29 01:05:44;;;;;;;;;;;17.30;63.70;;;;;;5021098;28;884;-71
2023/01/29 01:11:00;;;;;;;;;;;17.30;63.00;;;;;;5021239;28;825;-71
2023/01/29 01:13:25;;;;;;;;;;;17.20;62.90;;;;;;5022640;28;847;-71
2023/01/29 01:15:51;;;;;;;;;;;17.30;63.00;;;;;;5023731;28;987;-71
2023/01/29 01:18:18;;;;;;;;;;;17.30;63.00;;;;;;5021854;28;1339;-72
2023/01/29 01:20:44;;;;;;;;;;;17.30;63.00;;;;;;5019995;28;851;-72
2023/01/29 01:23:09;;;;;;;;;;;17.30;63.00;;;;;;5054824;28;1901;-72
2023/01/29 01:25:35;;;;;;;;;;;17.20;62.90;;;;;;5023515;28;864;-71
2023/01/29 01:28:00;;;;;;;;;;;17.30;63.00;;;;;;5021524;28;1341;-70
2023/01/29 01:30:26;;;;;;;;;;;17.30;63.00;;;;;;5023522;28;1046;-71
2023/01/29 01:32:51;;;;;;;;;;;17.20;63.00;;;;;;5022007;28;919;-71
2023/01/29 01:35:17;;;;;;;;;;;17.30;63.00;;;;;;5051008;28;1400;-71
2023/01/29 01:37:42;;;;;;;;;;;17.20;63.00;;;;;;5054397;28;1283;-71
2023/01/29 01:40:16;;;;;;;;;;;17.20;63.00;;;;;;5020107;28;900;-72
2023/01/29 01:42:42;;;;;;;;;;;17.20;63.00;;;;;;5057660;28;1969;-71
2023/01/29 01:45:16;;;;;;;;;;;17.20;63.00;;;;;;5023356;28;944;-70
2023/01/29 01:47:43;;;;;;;;;;;17.20;63.00;;;;;;5023395;28;1411;-70
2023/01/29 01:50:29;;;;;;;;;;;17.20;63.00;;;;;;5052863;28;1241;-69
2023/01/29 01:52:56;;;;;;;;;;;17.20;63.00;;;;;;5023455;28;1114;-69
2023/01/29 01:55:23;;;;;;;;;;;17.20;63.00;;;;;;5023743;28;990;-69
2023/01/29 01:57:49;;;;;;;;;;;17.20;63.00;;;;;;5028364;28;1263;-69
2023/01/29 02:00:15;;;;;;;;;;;17.20;63.00;;;;;;5050323;28;911;-69
2023/01/29 02:10:53;;;;;;;;;;;17.20;63.10;;;;;;5047575;28;808;-70
2023/01/29 02:13:18;;;;;;;;;;;17.20;63.10;;;;;;5021881;28;888;-69
2023/01/29 02:15:47;;;;;;;;;;;17.20;63.10;;;;;;5021057;28;918;-69
2023/01/29 02:18:13;;;;;;;;;;;17.20;63.10;;;;;;5018890;28;1350;-70
2023/01/29 02:20:40;;;;;;;;;;;17.20;63.10;;;;;;5050609;28;865;-70
2023/01/29 02:23:22;;;;;;;;;;;17.20;63.10;;;;;;5023899;28;1918;-70
2023/01/29 02:26:06;;;;;;;;;;;17.20;63.10;;;;;;5022002;28;869;-70
2023/01/29 02:28:31;;;;;;;;;;;17.20;63.10;;;;;;5017199;28;1352;-70
2023/01/29 02:31:08;;;;;;;;;;;17.20;63.10;;;;;;5021922;28;828;-70
2023/01/29 02:33:47;;;;;;;;;;;17.20;63.10;;;;;;5022622;28;857;-70
2023/01/29 02:36:15;;;;;;;;;;;17.20;63.10;;;;;;5048216;28;1409;-70
2023/01/29 02:38:53;;;;;;;;;;;17.20;63.10;;;;;;5022095;28;1268;-69
2023/01/29 02:41:22;;;;;;;;;;;17.20;63.10;;;;;;5053760;28;901;-70
2023/01/29 02:43:57;;;;;;;;;;;17.20;63.10;;;;;;5020763;28;1914;-70
2023/01/29 02:46:26;;;;;;;;;;;17.20;63.10;;;;;;5016474;28;894;-69
2023/01/29 02:49:00;;;;;;;;;;;17.20;63.10;;;;;;5051720;28;1260;-69
2023/01/29 02:51:37;;;;;;;;;;;17.20;63.10;;;;;;5040926;28;1239;-69
2023/01/29 02:54:02;;;;;;;;;;;17.20;63.20;;;;;;5051523;28;1173;-70
2023/01/29 02:56:30;;;;;;;;;;;17.20;63.20;;;;;;5019219;28;987;-69
2023/01/29 02:59:00;;;;;;;;;;;17.20;63.20;;;;;;5049988;28;1333;-69
2023/01/29 03:01:29;;;;;;;;;;;17.20;63.20;;;;;;5022109;28;1424;-70
2023/01/29 03:03:55;;;;;;;;;;;17.20;63.20;;;;;;5049116;28;2337;-69
2023/01/29 03:06:24;;;;;;;;;;;17.20;63.20;;;;;;5054094;28;920;-69
2023/01/29 03:09:09;;;;;;;;;;;17.20;63.20;;;;;;5050750;28;1832;-69
2023/01/29 03:11:36;;;;;;;;;;;17.20;63.20;;;;;;5016933;28;967;-70
2023/01/29 03:14:03;;;;;;;;;;;17.20;63.20;;;;;;5024184;28;936;-69
2023/01/29 03:16:30;;;;;;;;;;;17.20;63.20;;;;;;5030982;28;866;-70
2023/01/29 03:18:57;;;;;;;;;;;17.20;63.20;;;;;;5017810;28;1265;-70
2023/01/29 03:21:50;;;;;;;;;;;17.20;63.20;;;;;;5022851;28;1612;-71
2023/01/29 03:32:37;;;;;;;;;;;17.20;63.20;;;;;;5020148;28;1374;-70
2023/01/29 03:35:04;;;;;;;;;;;17.20;63.20;;;;;;5038186;28;1471;-70
2023/01/29 03:37:33;;;;;;;;;;;17.20;63.20;;;;;;5027496;28;1459;-69
2023/01/29 03:40:00;;;;;;;;;;;17.20;63.20;;;;;;5020573;28;1396;-71
2023/01/29 03:42:28;;;;;;;;;;;17.10;63.10;;;;;;5041495;28;1960;-71
2023/01/29 03:45:13;;;;;;;;;;;17.20;63.20;;;;;;5034343;28;798;-71
2023/01/29 03:47:41;;;;;;;;;;;17.20;63.20;;;;;;5019280;28;1343;-71
2023/01/29 03:50:09;;;;;;;;;;;17.20;63.20;;;;;;5021825;28;883;-71
2023/01/29 03:52:46;;;;;;;;;;;17.20;63.20;;;;;;5019786;28;908;-70
2023/01/29 03:55:12;;;;;;;;;;;17.20;63.20;;;;;;5019240;28;1317;-71
2023/01/29 03:57:39;;;;;;;;;;;17.20;63.20;;;;;;5021375;28;1348;-70
2023/01/29 04:00:07;;;;;;;;;;;17.20;63.20;;;;;;5049454;28;800;-70
2023/01/29 04:02:46;;;;;;;;;;;17.20;63.20;;;;;;5027387;28;1965;-70
2023/01/29 04:05:16;;;;;;;;;;;17.20;63.20;;;;;;5035421;28;1398;-69
2023/01/29 04:07:41;;;;;;;;;;;17.20;63.20;;;;;;5052459;28;1350;-69
2023/01/29 04:10:08;;;;;;;;;;;17.20;63.20;;;;;;5051878;28;832;-69
2023/01/29 04:12:40;;;;;;;;;;;17.10;63.90;;;;;;5021538;28;899;-69
2023/01/29 04:15:06;;;;;;;;;;;17.10;63.10;;;;;;5052315;28;845;-69
2023/01/29 04:17:33;;;;;;;;;;;17.10;63.20;;;;;;5049537;28;1279;-69
2023/01/29 04:20:02;;;;;;;;;;;17.10;63.20;;;;;;5051076;28;809;-70
2023/01/29 04:22:31;;;;;;;;;;;17.10;63.20;;;;;;5019504;28;1902;-69
2023/01/29 04:25:01;;;;;;;;;;;17.10;63.20;;;;;;5018396;28;849;-70
2023/01/29 04:27:36;;;;;;;;;;;17.10;63.20;;;;;;5049252;28;842;-70
2023/01/29 04:30:04;;;;;;;;;;;17.10;63.20;;;;;;5026576;28;868;-70
2023/01/29 04:32:38;;;;;;;;;;;17.10;63.20;;;;;;5017696;28;857;-69
2023/01/29 04:35:13;;;;;;;;;;;17.10;63.20;;;;;;5023562;28;1396;-69
2023/01/29 04:37:43;;;;;;;;;;;17.10;63.20;;;;;;5025031;28;1867;-70
2023/01/29 04:40:18;;;;;;;;;;;17.10;63.20;;;;;;5026331;28;1372;-70
2023/01/29 04:43:04;;;;;;;;;;;17.10;63.20;;;;;;5021221;28;1910;-71
2023/01/29 04:45:44;;;;;;;;;;;17.10;63.20;;;;;;5021567;28;1557;-73
2023/01/29 04:48:27;;;;;;;;;;;17.10;63.20;;;;;;5059655;28;1271;-70
2023/01/29 04:51:05;;;;;;;;;;;17.10;63.20;;;;;;5059663;28;947;-70
2023/01/29 04:53:40;;;;;;;;;;;17.10;63.20;;;;;;5029780;28;903;-70
2023/01/29 04:56:24;;;;;;;;;;;17.10;63.20;;;;;;5027955;28;914;-69
2023/01/29 04:58:58;;;;;;;;;;;17.10;63.20;;;;;;5022703;28;1443;-69
2023/01/29 05:01:24;;;;;;;;;;;17.10;63.20;;;;;;5022682;28;1216;-69
2023/01/29 05:03:50;;;;;;;;;;;17.10;63.20;;;;;;5055688;28;1898;-69
2023/01/29 05:06:15;;;;;;;;;;;17.10;63.20;;;;;;5054748;28;908;-69
2023/01/29 05:08:41;;;;;;;;;;;17.10;63.20;;;;;;5025012;28;1430;-69
2023/01/29 05:11:07;;;;;;;;;;;17.10;63.20;;;;;;5023350;28;869;-68
2023/01/29 05:13:33;;;;;;;;;;;17.20;63.20;;;;;;5055915;28;887;-69
2023/01/29 05:16:17;;;;;;;;;;;17.20;63.10;;;;;;5044133;28;876;-69
2023/01/29 05:18:43;;;;;;;;;;;17.20;63.00;;;;;;5020923;28;1330;-69
2023/01/29 05:21:08;;;;;;;;;;;17.20;62.90;;;;;;5023291;28;1062;-69
2023/01/29 05:23:34;;;;;;;;;;;17.30;62.80;;;;;;5028189;28;1907;-69
2023/01/29 05:25:59;;;;;;;;;;;17.30;62.70;;;;;;5026460;28;782;-69
2023/01/29 05:28:25;;;;;;;;;;;17.40;62.50;;;;;;5023799;28;1252;-69
2023/01/29 05:30:51;;;;;;;;;;;17.40;63.20;;;;;;5024218;28;1298;-71
2023/01/29 05:33:23;;;;;;;;;;;17.40;62.30;;;;;;5022898;28;1055;-71
2023/01/29 05:35:49;;;;;;;;;;;17.40;62.10;;;;;;5023864;28;1336;-72
2023/01/29 05:38:14;;;;;;;;;;;17.50;62.10;;;;;;5023095;28;1271;-72
2023/01/29 05:40:40;;;;;;;;;;;17.50;62.00;;;;;;5055893;28;1229;-72
2023/01/29 05:43:11;;;;;;;;;;;17.50;61.90;;;;;;5057050;28;2364;-69
2023/01/29 05:45:36;;;;;;;;;;;17.50;61.80;;;;;;5050920;28;910;-72
2023/01/29 05:48:02;;;;;;;;;;;17.60;61.80;;;;;;5020374;28;1275;-72
2023/01/29 05:50:27;;;;;;;;;;;17.60;61.80;;;;;;5021247;28;884;-72
2023/01/29 05:52:57;;;;;;;;;;;17.60;61.70;;;;;;5020523;28;844;-73
2023/01/29 05:55:22;;;;;;;;;;;17.60;61.70;;;;;;5054385;28;964;-73
2023/01/29 05:57:48;;;;;;;;;;;17.60;61.60;;;;;;5021725;28;1369;-71
2023/01/29 06:00:13;;;;;;;;;;;17.60;61.60;;;;;;5021825;28;862;-72
2023/01/29 06:02:39;;;;;;;;;;;17.60;61.50;;;;;;5020822;28;1902;-71
2023/01/29 06:05:04;;;;;;;;;;;17.60;61.50;;;;;;5020151;28;1280;-69
2023/01/29 06:07:30;;;;;;;;;;;17.60;62.20;;;;;;5021065;28;1318;-70
2023/01/29 06:09:55;;;;;;;;;;;17.60;61.40;;;;;;5018283;28;971;-70
2023/01/29 06:12:21;;;;;;;;;;;17.60;61.40;;;;;;5016792;28;959;-71
2023/01/29 06:14:46;;;;;;;;;;;17.70;61.40;;;;;;5021772;28;844;-72
2023/01/29 06:17:12;;;;;;;;;;;17.70;61.40;;;;;;5019798;28;792;-69
2023/01/29 06:19:38;;;;;;;;;;;17.70;61.40;;;;;;5017620;28;1264;-70
2023/01/29 06:22:03;;;;;;;;;;;17.70;61.40;;;;;;5019084;28;885;-71
2023/01/29 06:24:29;;;;;;;;;;;17.70;61.30;;;;;;5020143;28;1968;-71
2023/01/29 06:26:54;;;;;;;;;;;17.70;61.30;;;;;;5021483;28;1046;-69
2023/01/29 06:29:19;;;;;;;;;;;17.70;61.30;;;;;;5023043;28;1251;-69
2023/01/29 06:31:45;;;;;;;;;;;17.70;61.30;;;;;;5023937;28;808;-69
2023/01/29 06:34:10;;;;;;;;;;;17.70;61.30;;;;;;5022186;28;798;-70
2023/01/29 06:36:36;;;;;;;;;;;17.70;61.30;;;;;;5020318;28;1104;-70
2023/01/29 06:39:02;;;;;;;;;;;17.70;61.30;;;;;;5018007;28;1281;-70
2023/01/29 06:41:27;;;;;;;;;;;17.70;61.20;;;;;;5049618;28;964;-70
2023/01/29 06:43:52;;;;;;;;;;;17.70;61.20;;;;;;5019959;28;1958;-70
2023/01/29 06:46:18;;;;;;;;;;;17.70;61.20;;;;;;5019558;28;813;-70
2023/01/29 06:48:43;;;;;;;;;;;17.70;61.20;;;;;;5051847;28;1282;-71
2023/01/29 06:51:09;;;;;;;;;;;17.70;61.20;;;;;;5020693;28;1014;-71
2023/01/29 06:53:35;;;;;;;;;;;17.70;61.20;;;;;;5018458;28;900;-70
2023/01/29 06:56:00;;;;;;;;;;;17.70;61.20;;;;;;5053613;28;945;-70
2023/01/29 06:58:26;;;;;;;;;;;17.70;61.20;;;;;;5020499;28;1317;-71
2023/01/29 07:00:51;;;;;;;;;;;17.70;61.20;;;;;;5019119;28;869;-72
2023/01/29 07:03:20;;;;;;;;;;;17.70;61.10;;;;;;5018575;28;1894;-73
2023/01/29 07:05:51;;;;;;;;;;;17.70;61.20;;;;;;5017670;28;908;-71
2023/01/29 07:08:17;;;;;;;;;;;17.70;61.20;;;;;;5027452;28;1406;-71
2023/01/29 07:10:43;;;;;;;;;;;17.70;61.20;;;;;;5026228;28;878;-72
2023/01/29 07:13:08;;;;;;;;;;;17.70;61.20;;;;;;5037077;28;846;-72
2023/01/29 07:15:34;;;;;;;;;;;17.70;61.20;;;;;;5019502;28;891;-72
2023/01/29 07:18:00;;;;;;;;;;;17.70;61.20;;;;;;5024523;28;1294;-70
2023/01/29 07:20:26;;;;;;;;;;;17.70;61.20;;;;;;5019450;28;886;-70
2023/01/29 07:22:52;;;;;;;;;;;17.70;61.20;;;;;;5020191;28;1906;-70
2023/01/29 07:25:17;;;;;;;;;;;17.70;61.20;;;;;;5018187;28;837;-70
2023/01/29 07:27:43;;;;;;;;;;;17.70;61.30;;;;;;5017939;28;1259;-70
2023/01/29 07:30:09;;;;;;;;;;;17.70;61.30;;;;;;5018923;28;1607;-70
2023/01/29 07:32:34;;;;;;;;;;;17.70;61.30;;;;;;5017960;28;819;-70
2023/01/29 07:35:00;;;;;;;;;;;17.70;61.40;;;;;;5019986;28;1518;-71
2023/01/29 07:37:25;;;;;;;;;;;17.70;61.40;;;;;;5017307;28;852;-71
2023/01/29 07:39:50;;;;;;;;;;;17.60;61.40;;;;;;5018744;28;1398;-70
2023/01/29 07:42:16;;;;;;;;;;;17.60;61.40;;;;;;5017498;28;1899;-71
2023/01/29 07:44:41;;;;;;;;;;;17.60;61.50;;;;;;5027994;28;876;-71
2023/01/29 07:47:07;;;;;;;;;;;17.60;61.40;;;;;;5019199;28;1470;-71
2023/01/29 07:49:32;;;;;;;;;;;17.60;61.40;;;;;;5020961;28;1265;-71
2023/01/29 07:51:58;;;;;;;;;;;17.60;61.50;;;;;;5016794;28;868;-71
2023/01/29 07:54:23;;;;;;;;;;;17.60;61.40;;;;;;5020143;28;811;-71
2023/01/29 07:56:49;;;;;;;;;;;17.60;61.40;;;;;;5015992;28;1014;-71
2023/01/29 07:59:14;;;;;;;;;;;17.60;61.30;;;;;;5019110;28;1262;-71
2023/01/29 08:01:40;;;;;;;;;;;17.70;61.30;;;;;;5017988;28;802;-71
2023/01/29 08:04:05;;;;;;;;;;;17.70;61.30;;;;;;5019270;28;1883;-71
2023/01/29 08:06:31;;;;;;;;;;;17.70;61.40;;;;;;5022179;28;925;-71
2023/01/29 08:08:56;;;;;;;;;;;17.70;61.30;;;;;;5020411;28;1375;-71
2023/01/29 08:11:22;;;;;;;;;;;17.70;61.40;;;;;;5020623;28;1395;-71
2023/01/29 08:13:47;;;;;;;;;;;17.70;61.30;;;;;;5047966;28;1068;-71
2023/01/29 08:16:13;;;;;;;;;;;17.70;61.30;;;;;;5016280;28;841;-71
2023/01/29 08:18:41;;;;;;;;;;;17.70;61.30;;;;;;5019118;28;1363;-71
2023/01/29 08:21:06;;;;;;;;;;;17.70;61.20;;;;;;5017463;28;963;-71
2023/01/29 08:23:32;;;;;;;;;;;17.70;61.20;;;;;;5020758;28;1903;-71
2023/01/29 08:25:57;;;;;;;;;;;17.70;61.20;;;;;;5019090;28;884;-71
2023/01/29 08:28:23;;;;;;;;;;;17.70;61.20;;;;;;5016951;28;1275;-71
2023/01/29 08:30:48;;;;;;;;;;;17.70;61.20;;;;;;5016551;28;876;-71
2023/01/29 08:33:14;;;;;;;;;;;17.70;61.10;;;;;;5019516;28;900;-71
2023/01/29 08:35:40;;;;;;;;;;;17.70;61.10;;;;;;5018255;28;1318;-71
2023/01/29 08:38:05;;;;;;;;;;;17.70;61.10;;;;;;5019144;28;1366;-71
2023/01/29 08:40:31;;;;;;;;;;;17.70;61.10;;;;;;5019779;28;859;-71
2023/01/29 08:43:01;;;;;;;;;;;17.70;61.10;;;;;;5035181;28;1899;-72
2023/01/29 08:45:26;;;;;;;;;;;17.70;61.10;;;;;;5021022;28;998;-72
2023/01/29 08:47:52;;;;;;;;;;;17.70;61.10;;;;;;5016025;28;1357;-72
2023/01/29 08:50:17;;;;;;;;;;;17.70;61.10;;;;;;5047283;28;1002;-71
2023/01/29 08:52:43;;;;;;;;;;;17.70;61.00;;;;;;5020615;28;1021;-72
2023/01/29 08:55:08;;;;;;;;;;;17.70;61.00;;;;;;5052214;28;957;-71
2023/01/29 08:57:34;;;;;;;;;;;17.70;61.10;;;;;;5017633;28;1748;-71
2023/01/29 08:59:59;;;;;;;;;;;17.80;61.10;;;;;;5023185;28;1519;-71
2023/01/29 09:02:25;;;;;;;;;;;17.80;61.10;;;;;;5014943;28;1949;-71
2023/01/29 09:04:50;;;;;;;;;;;17.70;61.00;;;;;;5015604;28;1338;-71
2023/01/29 09:07:16;;;;;;;;;;;17.80;61.10;;;;;;5019404;28;843;-71
2023/01/29 09:09:41;;;;;;;;;;;17.80;61.10;;;;;;5051123;28;1403;-71
2023/01/29 09:12:06;;;;;;;;;;;17.80;61.10;;;;;;5019507;28;891;-71
2023/01/29 09:14:32;;;;;;;;;;;17.80;61.00;;;;;;5020113;28;849;-71
2023/01/29 09:16:57;;;;;;;;;;;17.80;61.10;;;;;;5053389;28;1204;-71
2023/01/29 09:19:23;;;;;;;;;;;17.70;60.90;;;;;;5020613;28;1249;-71
2023/01/29 09:21:48;;;;;;;;;;;17.80;61.00;;;;;;5025975;28;852;-71
2023/01/29 09:24:14;;;;;;;;;;;17.80;61.00;;;;;;5025083;28;1969;-71
2023/01/29 09:26:39;;;;;;;;;;;17.80;61.00;;;;;;5022468;28;820;-71
2023/01/29 09:29:05;;;;;;;;;;;17.80;61.00;;;;;;5019949;28;1218;-71
2023/01/29 09:31:31;;;;;;;;;;;17.80;61.00;;;;;;5022583;28;915;-71
2023/01/29 09:33:56;;;;;;;;;;;17.80;61.00;;;;;;5023428;28;923;-70
2023/01/29 09:36:21;;;;;;;;;;;17.80;61.00;;;;;;5020262;28;1352;-71
2023/01/29 09:38:47;;;;;;;;;;;17.80;61.00;;;;;;5018742;28;1522;-72
2023/01/29 09:41:12;;;;;;;;;;;17.80;61.00;;;;;;5020798;28;1099;-71
2023/01/29 09:43:38;;;;;;;;;;;17.80;61.00;;;;;;5022441;28;1960;-70
2023/01/29 09:46:13;;;;;;;;;;;17.80;61.00;;;;;;5022929;28;880;-70
2023/01/29 09:48:39;;;;;;;;;;;17.80;61.00;;;;;;5033956;28;1376;-69
2023/01/29 09:51:06;;;;;;;;;;;17.80;61.00;;;;;;5022492;28;892;-70
2023/01/29 09:53:34;;;;;;;;;;;17.70;60.90;;;;;;5053278;28;882;-69
2023/01/29 09:56:01;;;;;;;;;;;17.80;61.00;;;;;;5021423;28;1697;-69
2023/01/29 09:58:29;;;;;;;;;;;17.80;61.10;;;;;;5026149;28;1367;-70
2023/01/29 10:01:00;;;;;;;;;;;17.80;61.10;;;;;;5054039;28;827;-70
2023/01/29 10:03:35;;;;;;;;;;;17.70;61.00;;;;;;5021146;28;1902;-70
2023/01/29 10:06:03;;;;;;;;;;;17.70;61.00;;;;;;5023774;28;978;-69
2023/01/29 10:08:54;;;;;;;;;;;17.70;61.00;;;;;;5022155;28;1326;-70
2023/01/29 10:11:30;;;;;;;;;;;17.70;61.10;;;;;;5020037;28;1041;-69
2023/01/29 10:14:21;;;;;;;;;;;17.70;61.10;;;;;;5025299;28;911;-69
2023/01/29 10:17:00;;;;;;;;;;;17.70;61.10;;;;;;5015633;28;1343;-70
2023/01/29 10:19:32;;;;;;;;;;;17.70;61.10;;;;;;5022237;28;1287;-70
2023/01/29 10:22:12;;;;;;;;;;;17.70;61.10;;;;;;5019005;28;975;-70
2023/01/29 10:24:40;;;;;;;;;;;17.70;61.10;;;;;;5026412;28;1914;-70
2023/01/29 10:27:11;;;;;;;;;;;17.70;61.20;;;;;;5054430;28;839;-70
2023/01/29 10:29:36;;;;;;;;;;;17.70;61.20;;;;;;5053640;28;1709;-70
2023/01/29 10:32:04;;;;;;;;;;;17.70;61.20;;;;;;5039716;28;1583;-69
2023/01/29 10:34:34;;;;;;;;;;;17.70;61.20;;;;;;5024702;28;1091;-69
2023/01/29 10:37:00;;;;;;;;;;;17.70;61.20;;;;;;5022138;28;887;-70
2023/01/29 10:39:25;;;;;;;;;;;17.70;61.20;;;;;;5021066;28;1380;-70
2023/01/29 10:41:57;;;;;;;;;;;17.70;61.20;;;;;;5021305;28;841;-70
2023/01/29 10:44:41;;;;;;;;;;;17.70;61.20;;;;;;5019200;28;2344;-69
2023/01/29 10:47:10;;;;;;;;;;;17.70;61.20;;;;;;5017532;28;828;-69
2023/01/29 10:49:36;;;;;;;;;;;17.70;61.20;;;;;;5017858;28;1280;-69
2023/01/29 10:52:10;;;;;;;;;;;17.70;61.20;;;;;;5021525;28;931;-69
2023/01/29 10:54:38;;;;;;;;;;;17.70;61.20;;;;;;5022317;28;898;-69
2023/01/29 10:57:13;;;;;;;;;;;17.70;61.20;;;;;;5020244;28;880;-69
2023/01/29 10:59:45;;;;;;;;;;;17.70;61.20;;;;;;5023032;28;1279;-69
2023/01/29 11:02:12;;;;;;;;;;;17.70;61.20;;;;;;5036795;28;879;-69
2023/01/29 11:04:38;;;;;;;;;;;17.70;61.20;;;;;;5023477;28;1962;-69
2023/01/29 11:07:03;;;;;;;;;;;17.70;61.20;;;;;;5020762;28;872;-69
2023/01/29 11:09:29;;;;;;;;;;;17.70;61.20;;;;;;5023339;28;1295;-69
2023/01/29 11:12:03;;;;;;;;;;;17.70;61.20;;;;;;5017499;28;852;-69
2023/01/29 11:14:41;;;;;;;;;;;17.60;61.20;;;;;;5021034;28;899;-71
2023/01/29 11:17:13;;;;;;;;;;;17.70;61.20;;;;;;5022026;28;1014;-71
2023/01/29 11:19:39;;;;;;;;;;;17.70;61.20;;;;;;5018191;28;1391;-70
2023/01/29 11:22:10;;;;;;;;;;;17.70;61.20;;;;;;5020096;28;1554;-70
2023/01/29 11:24:35;;;;;;;;;;;17.70;61.20;;;;;;5035519;28;1902;-69
2023/01/29 11:27:01;;;;;;;;;;;17.70;61.20;;;;;;5020424;28;871;-69
2023/01/29 11:29:28;;;;;;;;;;;17.70;61.20;;;;;;5021060;28;1385;-69
2023/01/29 11:31:54;;;;;;;;;;;17.70;61.20;;;;;;5023926;28;904;-70
2023/01/29 11:34:20;;;;;;;;;;;17.70;61.20;;;;;;5049555;28;1358;-69
2023/01/29 11:36:46;;;;;;;;;;;17.70;61.20;;;;;;5020915;28;883;-69
2023/01/29 11:39:21;;;;;;;;;;;17.70;61.20;;;;;;5048991;28;1378;-69
2023/01/29 11:41:57;;;;;;;;;;;17.70;61.20;;;;;;5052886;28;943;-68
2023/01/29 11:44:25;;;;;;;;;;;17.70;61.20;;;;;;5049948;28;1902;-69
2023/01/29 11:46:51;;;;;;;;;;;17.70;61.20;;;;;;5020334;28;829;-69
2023/01/29 11:49:43;;;;;;;;;;;17.70;61.20;;;;;;5042182;28;1350;-69
2023/01/29 11:52:08;;;;;;;;;;;17.70;61.10;;;;;;5016843;28;1099;-69
2023/01/29 11:54:36;;;;;;;;;;;17.70;61.10;;;;;;5017535;28;880;-69
2023/01/29 11:57:02;;;;;;;;;;;17.70;61.10;;;;;;5048821;28;860;-69
2023/01/29 11:59:36;;;;;;;;;;;17.70;61.10;;;;;;5049267;28;1373;-71
2023/01/29 12:02:22;;;;;;;;;;;17.70;61.10;;;;;;5048227;28;832;-69
2023/01/29 12:04:48;;;;;;;;;;;17.70;61.10;;;;;;5017102;28;2113;-69
2023/01/29 12:07:14;;;;;;;;;;;17.70;61.10;;;;;;5016879;28;1395;-69
2023/01/29 12:09:40;;;;;;;;;;;17.70;61.10;;;;;;5017093;28;1436;-69
2023/01/29 12:12:16;;;;;;;;;;;17.70;61.10;;;;;;5018199;28;2169;-69
2023/01/29 12:14:41;;;;;;;;;;;17.70;61.10;;;;;;5018363;28;1257;-69
2023/01/29 12:17:15;;;;;;;;;;;17.70;61.10;;;;;;5051501;28;1871;-69
2023/01/29 12:19:42;;;;;;;;;;;17.70;61.10;;;;;;5018505;28;1275;-69
2023/01/29 12:22:19;;;;;;;;;;;17.70;61.10;;;;;;5022361;28;1048;-69
2023/01/29 12:24:47;;;;;;;;;;;17.70;61.20;;;;;;5050184;28;1906;-69
2023/01/29 12:27:18;;;;;;;;;;;17.70;61.20;;;;;;5018479;28;828;-69
2023/01/29 12:30:16;;;;;;;;;;;17.70;61.20;;;;;;5016576;28;1303;-69
2023/01/29 12:32:45;;;;;;;;;;;17.70;61.20;;;;;;5016719;28;1282;-69
2023/01/29 12:35:16;;;;;;;;;;;17.70;61.20;;;;;;5018930;28;882;-68
2023/01/29 12:37:48;;;;;;;;;;;17.70;61.30;;;;;;5050716;28;1298;-69
2023/01/29 12:40:14;;;;;;;;;;;17.70;61.30;;;;;;5018135;28;883;-69
2023/01/29 12:42:40;;;;;;;;;;;17.70;61.30;;;;;;5021287;28;1974;-69
2023/01/29 12:45:07;;;;;;;;;;;17.70;61.40;;;;;;5017527;28;860;-69
2023/01/29 12:47:36;;;;;;;;;;;17.70;62.20;;;;;;5050690;28;1271;-69
2023/01/29 12:50:04;;;;;;;;;;;17.60;61.40;;;;;;5047789;28;797;-69
2023/01/29 12:52:34;;;;;;;;;;;17.60;61.40;;;;;;5023068;28;915;-69
2023/01/29 12:55:01;;;;;;;;;;;17.60;61.50;;;;;;5020927;28;884;-69
2023/01/29 12:57:33;;;;;;;;;;;17.60;61.60;;;;;;5021498;28;1274;-70
2023/01/29 13:00:01;;;;;;;;;;;17.60;61.60;;;;;;5019737;28;805;-69
2023/01/29 13:02:34;;;;;;;;;;;17.60;61.60;;;;;;5054691;28;1953;-69
2023/01/29 13:05:02;;;;;;;;;;;17.60;61.70;;;;;;5022677;28;1322;-69
2023/01/29 13:07:30;;;;;;;;;;;17.60;61.70;;;;;;5022972;28;1277;-69
2023/01/29 13:09:57;;;;;;;;;;;17.60;61.70;;;;;;5034583;28;900;-69
2023/01/29 13:12:22;;;;;;;;;;;17.60;61.80;;;;;;5020355;28;863;-69
2023/01/29 13:14:50;;;;;;;;;;;17.50;61.70;;;;;;5056752;28;923;-69
2023/01/29 13:17:23;;;;;;;;;;;17.50;61.70;;;;;;5022151;28;1030;-69
2023/01/29 13:19:49;;;;;;;;;;;17.50;61.80;;;;;;5052074;28;1184;-69
2023/01/29 13:22:17;;;;;;;;;;;17.50;61.80;;;;;;5057386;28;907;-69
2023/01/29 13:24:42;;;;;;;;;;;17.50;61.80;;;;;;5027511;28;1902;-69
2023/01/29 13:27:16;;;;;;;;;;;17.50;61.80;;;;;;5022979;28;985;-69
2023/01/29 13:29:42;;;;;;;;;;;17.50;61.90;;;;;;5035867;28;1366;-69
2023/01/29 13:32:08;;;;;;;;;;;17.50;61.90;;;;;;5021355;28;1050;-69
2023/01/29 13:34:42;;;;;;;;;;;17.50;61.90;;;;;;5054313;28;1304;-69
2023/01/29 13:37:08;;;;;;;;;;;17.50;61.90;;;;;;5035577;28;927;-69
2023/01/29 13:39:38;;;;;;;;;;;17.50;62.00;;;;;;5054330;28;1696;-69
2023/01/29 13:42:13;;;;;;;;;;;17.50;62.00;;;;;;5050643;28;847;-69
2023/01/29 13:44:39;;;;;;;;;;;17.50;62.00;;;;;;5036201;28;1930;-69
2023/01/29 13:47:05;;;;;;;;;;;17.50;62.10;;;;;;5020926;28;948;-69
2023/01/29 13:49:38;;;;;;;;;;;17.50;62.10;;;;;;5051640;28;1277;-69
2023/01/29 13:52:21;;;;;;;;;;;17.40;62.10;;;;;;5019873;28;836;-68
2023/01/29 13:55:16;;;;;;;;;;;17.40;62.10;;;;;;5052446;28;899;-68
2023/01/29 13:57:47;;;;;;;;;;;17.40;62.10;;;;;;5015603;28;1334;-69
2023/01/29 14:00:15;;;;;;;;;;;17.40;62.10;;;;;;5019659;28;1848;-69
2023/01/29 14:02:41;;;;;;;;;;;17.40;62.10;;;;;;5021044;28;2123;-69
2023/01/29 14:05:25;;;;;;;;;;;17.40;62.20;;;;;;5028381;28;1902;-69
2023/01/29 14:07:50;;;;;;;;;;;17.40;62.20;;;;;;5022006;28;1319;-69
2023/01/29 14:10:17;;;;;;;;;;;17.40;62.20;;;;;;5021733;28;1640;-69
2023/01/29 14:12:43;;;;;;;;;;;17.40;62.20;;;;;;5021683;28;2533;-69
2023/01/29 14:15:17;;;;;;;;;;;17.40;62.20;;;;;;5021649;28;1380;-69
2023/01/29 14:18:01;;;;;;;;;;;17.40;62.30;;;;;;5022810;28;1310;-68
2023/01/29 14:20:30;;;;;;;;;;;17.40;62.30;;;;;;5022584;28;903;-69
2023/01/29 14:22:56;;;;;;;;;;;17.40;62.30;;;;;;5035525;28;1979;-69
2023/01/29 14:25:23;;;;;;;;;;;17.40;62.30;;;;;;5052516;28;858;-69
2023/01/29 14:27:48;;;;;;;;;;;17.40;62.30;;;;;;5053051;28;1268;-70
2023/01/29 14:30:15;;;;;;;;;;;17.40;62.30;;;;;;5021849;28;1003;-70
2023/01/29 14:32:40;;;;;;;;;;;17.40;62.20;;;;;;5052981;28;995;-71
2023/01/29 14:35:15;;;;;;;;;;;17.50;62.20;;;;;;5051237;28;1511;-70
2023/01/29 14:37:41;;;;;;;;;;;17.50;62.10;;;;;;5007280;28;1409;-70
2023/01/29 14:40:09;;;;;;;;;;;17.50;62.00;;;;;;5022503;28;1535;-71
2023/01/29 14:42:35;;;;;;;;;;;17.50;61.90;;;;;;5019212;28;1934;-70
2023/01/29 14:45:19;;;;;;;;;;;17.60;61.80;;;;;;5052356;28;1734;-70
2023/01/29 14:47:47;;;;;;;;;;;17.60;61.70;;;;;;5020190;28;1285;-68
2023/01/29 14:50:22;;;;;;;;;;;17.60;61.60;;;;;;5020013;28;978;-69
2023/01/29 14:52:47;;;;;;;;;;;17.70;61.50;;;;;;5022953;28;1022;-69
2023/01/29 14:55:45;;;;;;;;;;;17.70;61.40;;;;;;5047510;28;856;-71
2023/01/29 14:58:15;;;;;;;;;;;17.70;61.40;;;;;;5010979;28;1243;-69
2023/01/29 15:00:42;;;;;;;;;;;17.70;61.30;;;;;;5020365;28;828;-68
2023/01/29 15:03:26;;;;;;;;;;;17.70;61.20;;;;;;5052777;28;1963;-69
2023/01/29 15:05:52;;;;;;;;;;;17.70;61.10;;;;;;5019290;28;1903;-69
2023/01/29 15:08:23;;;;;;;;;;;17.80;61.20;;;;;;5019647;28;2062;-67
2023/01/29 15:11:32;;;;;;;;;;;17.70;61.10;;;;;;5020775;28;1433;-69